Pickle Lake Airport
CYPL : now visible

Airfield :











YOU CAN JOIN US ON...

 
LOGIN :

Register | Disclaimer

   EN    FR    IT 

 









Legend :    VFR   Marginal VFR   IFR   Intensive IFR   Very Intensive IFR
Visi :
Ceiling :
>= 8 km
>= 3000ft
5 to 8 km
1000 to 3000 ft
1500m to 5 km
500 to 1000 ft
800 to 1500m
200 to 500 ft
< 800m
< 200 ft
Symbols :   Thunderstorms  Fog  Heavy snow  Heavy precipitations  Wind > 20 kt






- Airport Elevation : 1267 ft
- IATA code : YPL


CYPL - Pickle Lake

CURRENT METAR :
  • 271600Z AUTO 30004KT 240V350 9SM OVC032 11/04 A2978 RMK SLP100

EXPIRED METARs :
  • 271500Z AUTO 27006KT 250V310 9SM FEW023 BKN030 OVC035 10/05 A2977 RMK SLP095
  • 271400Z AUTO 28005KT 9SM OVC038 10/07 A2977 RMK SLP094
  • 271300Z AUTO 29004KT 9SM OVC040 08/06 A2977 RMK SLP095
  • 271200Z AUTO 28006KT 9SM OVC038 07/05 A2977 RMK SLP095

TAF TAF CYPL
Valid from the 27 at 14:00 until the 28 at 02:00 UTC


271340Z 2714/2802 29005KT P6SM BKN040
TEMPO 2716/2724 P6SM -SHRA OVC040
FM280000 34007KT P6SM SCT020 OVC040
TEMPO 2800/2802 P6SM -SHRA BKN020 OVC040 RMK FCST BASED ON AUTO OBS. NXT FCST BY 272000Z
CZWG FIR / North America



MET'MAP, your aeronautical weather chart ! - Copyright ORBIFLY December 2007 - Disclaimer

ORBIFLY MET'MAP TEAM :

Programming & Development : Alexandra Zaïnal
Original concept : Baudouin d'Aumeries
Technical & hardware support : Manuel Goepfert
Assistance : Marc-Olivier Méhu




SOURCES & CREDITS :

   NOAA       Earth
Advisory